Time;durP1;ratioP1;P1;durP2;ratioP2;P2;SDS_P1;SDS_P2;PMS_P1;PMS_P2;Temp;Humidity;BMP_temperature;BMP_pressure;BME280_temperature;BME280_humidity;BME280_pressure;Samples;Min_cycle;Max_cycle;Signal;HPM_P1;HPM_P2
2022/12/13 00:00:17;;;;;;;42.65;21.95;;;;;;;;;;4981277;28;20042;-84
2022/12/13 00:02:45;;;;;;;47.88;22.05;;;;;;;;;;4997432;28;20296;-84
2022/12/13 00:05:12;;;;;;;43.05;21.65;;;;;;;;;;4981895;28;20041;-84
2022/12/13 00:07:39;;;;;;;49.00;22.08;;;;;;;;;;5013502;28;20068;-85
2022/12/13 00:10:05;;;;;;;42.75;22.45;;;;;;;;;;4997284;28;20041;-84
2022/12/13 00:12:32;;;;;;;41.22;21.55;;;;;;;;;;4997462;28;20049;-84
2022/12/13 00:14:58;;;;;;;38.17;20.88;;;;;;;;;;4996814;28;20052;-84
2022/12/13 00:17:24;;;;;;;49.40;21.45;;;;;;;;;;4997127;28;20050;-84
2022/12/13 00:20:00;;;;;;;36.97;19.80;;;;;;;;;;5013897;28;20141;-85
2022/12/13 00:22:26;;;;;;;49.33;23.30;;;;;;;;;;4997329;28;20038;-87
2022/12/13 00:24:54;;;;;;;38.50;21.42;;;;;;;;;;4981055;28;20088;-85
2022/12/13 00:27:20;;;;;;;41.70;22.95;;;;;;;;;;5013579;28;20042;-86
2022/12/13 00:29:46;;;;;;;36.92;20.15;;;;;;;;;;4980940;28;20438;-86
2022/12/13 00:32:12;;;;;;;41.63;20.73;;;;;;;;;;4997522;28;20466;-84
2022/12/13 00:34:38;;;;;;;37.10;21.67;;;;;;;;;;5013178;28;20054;-83
2022/12/13 00:37:04;;;;;;;40.42;20.58;;;;;;;;;;4997083;28;20049;-85
2022/12/13 00:39:30;;;;;;;47.58;20.88;;;;;;;;;;4996902;28;20053;-85
2022/12/13 00:41:57;;;;;;;45.42;21.83;;;;;;;;;;4997086;28;20046;-84
2022/12/13 00:44:23;;;;;;;34.15;19.95;;;;;;;;;;5012695;28;20046;-84
2022/12/13 00:46:50;;;;;;;41.20;21.55;;;;;;;;;;4996702;28;20042;-83
2022/12/13 00:49:18;;;;;;;43.38;19.70;;;;;;;;;;4996635;28;20069;-84
2022/12/13 00:51:44;;;;;;;33.78;20.42;;;;;;;;;;4996568;28;20046;-85
2022/12/13 00:54:10;;;;;;;42.35;20.10;;;;;;;;;;4996714;28;20042;-86
2022/12/13 00:56:39;;;;;;;36.92;19.88;;;;;;;;;;5013159;28;20053;-83
2022/12/13 00:59:09;;;;;;;31.58;17.10;;;;;;;;;;4997283;28;20132;-84
2022/12/13 01:01:36;;;;;;;33.22;19.65;;;;;;;;;;4980743;28;20394;-85
2022/12/13 01:04:03;;;;;;;46.88;23.30;;;;;;;;;;4996532;28;20061;-86
2022/12/13 01:06:33;;;;;;;40.50;19.77;;;;;;;;;;5012553;28;20041;-86
2022/12/13 01:08:59;;;;;;;43.90;20.45;;;;;;;;;;4996251;28;20069;-84
2022/12/13 01:11:25;;;;;;;35.50;18.52;;;;;;;;;;5012529;28;20042;-84
2022/12/13 01:13:51;;;;;;;40.97;19.42;;;;;;;;;;4996470;28;20045;-83
2022/12/13 01:16:17;;;;;;;40.17;23.40;;;;;;;;;;4996018;28;20046;-85
2022/12/13 01:18:44;;;;;;;40.45;23.75;;;;;;;;;;4980129;28;20041;-84
2022/12/13 01:21:11;;;;;;;49.55;22.35;;;;;;;;;;4996130;28;20509;-84
2022/12/13 01:23:44;;;;;;;35.10;19.73;;;;;;;;;;4997035;28;20596;-83
2022/12/13 01:26:12;;;;;;;36.60;19.90;;;;;;;;;;5012291;28;20050;-87
2022/12/13 01:28:38;;;;;;;37.65;20.50;;;;;;;;;;5012067;28;20045;-84
2022/12/13 01:31:05;;;;;;;33.42;19.30;;;;;;;;;;4979690;28;20490;-83
2022/12/13 01:33:31;;;;;;;44.17;20.45;;;;;;;;;;4995524;28;20129;-84
2022/12/13 01:36:00;;;;;;;36.20;19.40;;;;;;;;;;4995783;28;20053;-84
2022/12/13 01:38:26;;;;;;;39.28;20.17;;;;;;;;;;4995666;28;20168;-83
2022/12/13 01:40:56;;;;;;;35.53;19.15;;;;;;;;;;4979857;28;20092;-83
2022/12/13 01:43:23;;;;;;;37.03;20.00;;;;;;;;;;5012477;28;20414;-85
2022/12/13 01:45:51;;;;;;;39.40;19.48;;;;;;;;;;5011880;28;20050;-84
2022/12/13 01:48:20;;;;;;;40.80;19.42;;;;;;;;;;4979514;28;20042;-83
2022/12/13 01:50:49;;;;;;;40.40;20.63;;;;;;;;;;5011925;28;20124;-84
2022/12/13 01:53:18;;;;;;;37.45;19.42;;;;;;;;;;5012058;28;20038;-83
2022/12/13 01:55:46;;;;;;;46.50;19.50;;;;;;;;;;4995424;28;20049;-84
2022/12/13 01:58:13;;;;;;;39.83;19.83;;;;;;;;;;5011506;28;20402;-83
2022/12/13 02:00:39;;;;;;;36.67;19.80;;;;;;;;;;4995205;28;20042;-83
2022/12/13 02:03:05;;;;;;;37.05;19.27;;;;;;;;;;4995225;28;20404;-83
2022/12/13 02:05:43;;;;;;;40.80;21.05;;;;;;;;;;5011562;28;20503;-84
2022/12/13 02:08:11;;;;;;;37.75;20.05;;;;;;;;;;5011493;28;20128;-84
2022/12/13 02:10:38;;;;;;;47.47;20.20;;;;;;;;;;5011268;28;20049;-83
2022/12/13 02:13:04;;;;;;;35.70;19.02;;;;;;;;;;4979315;28;20056;-83
2022/12/13 02:15:49;;;;;;;34.65;18.13;;;;;;;;;;4995249;28;20406;-83
2022/12/13 02:18:21;;;;;;;35.13;18.52;;;;;;;;;;4995288;28;20049;-84
2022/12/13 02:20:53;;;;;;;38.45;19.88;;;;;;;;;;5011505;28;20084;-83
2022/12/13 02:23:31;;;;;;;35.58;18.75;;;;;;;;;;4995131;28;20045;-84
2022/12/13 02:25:57;;;;;;;32.95;19.50;;;;;;;;;;4994764;28;20053;-84
2022/12/13 02:28:32;;;;;;;33.67;16.95;;;;;;;;;;4995079;28;20049;-83
2022/12/13 02:31:10;;;;;;;34.10;19.75;;;;;;;;;;4995186;28;20104;-83
2022/12/13 02:33:59;;;;;;;30.95;18.60;;;;;;;;;;5010972;28;20065;-83
2022/12/13 02:36:45;;;;;;;40.17;19.88;;;;;;;;;;5003335;28;20085;-83
2022/12/13 02:39:19;;;;;;;40.35;20.25;;;;;;;;;;5005093;28;20046;-83
2022/12/13 02:41:47;;;;;;;33.78;18.60;;;;;;;;;;5011430;28;20041;-83
2022/12/13 02:44:25;;;;;;;39.20;18.92;;;;;;;;;;5011022;28;20084;-83
2022/12/13 02:46:55;;;;;;;35.33;18.73;;;;;;;;;;5010922;28;20050;-83
2022/12/13 02:49:23;;;;;;;37.53;19.48;;;;;;;;;;5011209;28;20045;-84
2022/12/13 02:51:50;;;;;;;39.58;20.20;;;;;;;;;;4994584;28;20038;-83
2022/12/13 02:54:16;;;;;;;34.35;19.08;;;;;;;;;;4994511;28;20053;-83
2022/12/13 02:56:52;;;;;;;37.00;20.98;;;;;;;;;;5012126;28;20056;-83
2022/12/13 02:59:18;;;;;;;37.17;20.05;;;;;;;;;;4994540;28;20077;-83
2022/12/13 03:01:53;;;;;;;34.72;19.60;;;;;;;;;;4994695;28;20057;-83
2022/12/13 03:04:25;;;;;;;33.55;19.05;;;;;;;;;;5010838;28;20131;-84
2022/12/13 03:06:51;;;;;;;35.33;19.75;;;;;;;;;;5011312;28;20499;-83
2022/12/13 03:09:39;;;;;;;35.72;21.77;;;;;;;;;;4994455;28;20494;-84
2022/12/13 03:14:59;;;;;;;35.45;18.75;;;;;;;;;;5010577;28;20081;-83
2022/12/13 03:17:26;;;;;;;41.60;20.15;;;;;;;;;;4994672;28;20042;-83
2022/12/13 03:19:53;;;;;;;37.00;18.70;;;;;;;;;;5011182;28;20466;-84
2022/12/13 03:22:19;;;;;;;34.38;17.63;;;;;;;;;;4994634;28;20080;-83
2022/12/13 03:24:45;;;;;;;33.00;18.52;;;;;;;;;;5010591;28;20406;-83
2022/12/13 03:27:18;;;;;;;35.15;18.15;;;;;;;;;;4995349;28;20410;-83
2022/12/13 03:29:44;;;;;;;43.33;20.05;;;;;;;;;;4994001;28;20566;-83
2022/12/13 03:32:10;;;;;;;44.70;21.02;;;;;;;;;;4994505;28;20112;-83
2022/12/13 03:34:36;;;;;;;35.28;18.80;;;;;;;;;;4993928;28;20054;-83
2022/12/13 03:37:03;;;;;;;33.88;18.45;;;;;;;;;;4977918;28;20046;-83
2022/12/13 03:39:29;;;;;;;36.60;17.52;;;;;;;;;;4978087;28;20049;-83
2022/12/13 03:41:55;;;;;;;36.13;18.77;;;;;;;;;;5010858;28;20438;-87
2022/12/13 03:44:22;;;;;;;35.83;18.40;;;;;;;;;;4994225;28;20057;-87
2022/12/13 03:46:48;;;;;;;38.17;19.08;;;;;;;;;;4994477;28;20049;-88
2022/12/13 03:49:14;;;;;;;34.10;18.70;;;;;;;;;;4978470;28;20050;-88
2022/12/13 03:51:40;;;;;;;34.10;17.67;;;;;;;;;;5013907;28;20096;-87
2022/12/13 03:54:06;;;;;;;40.63;19.00;;;;;;;;;;5014381;28;20038;-86
2022/12/13 03:56:32;;;;;;;42.92;20.60;;;;;;;;;;4998398;28;20057;-85
2022/12/13 03:58:58;;;;;;;33.83;17.58;;;;;;;;;;4998412;28;20042;-86
2022/12/13 04:01:25;;;;;;;28.55;18.33;;;;;;;;;;5014402;28;20041;-84
2022/12/13 04:03:51;;;;;;;35.40;18.92;;;;;;;;;;4981665;28;20125;-86
2022/12/13 04:06:17;;;;;;;37.35;19.17;;;;;;;;;;4981840;28;20049;-84
2022/12/13 04:08:43;;;;;;;37.05;19.67;;;;;;;;;;4997794;28;20042;-84
2022/12/13 04:13:54;;;;;;;30.15;16.73;;;;;;;;;;5014310;28;20514;-84
2022/12/13 04:16:21;;;;;;;34.72;17.95;;;;;;;;;;5013527;28;20180;-83
2022/12/13 04:18:47;;;;;;;31.63;18.13;;;;;;;;;;5013985;28;20128;-84
2022/12/13 04:21:14;;;;;;;30.60;17.10;;;;;;;;;;4997366;28;20467;-84
2022/12/13 04:23:40;;;;;;;34.00;18.20;;;;;;;;;;4997802;28;20406;-85
2022/12/13 04:26:06;;;;;;;39.35;18.30;;;;;;;;;;4981169;28;20046;-84
2022/12/13 04:28:32;;;;;;;29.63;16.83;;;;;;;;;;4997074;28;20045;-87
2022/12/13 04:30:58;;;;;;;25.25;16.83;;;;;;;;;;5013669;28;20561;-84
2022/12/13 04:33:24;;;;;;;34.30;17.70;;;;;;;;;;4997078;28;20511;-84
2022/12/13 04:35:51;;;;;;;35.65;17.48;;;;;;;;;;4981182;28;20053;-85
2022/12/13 04:38:17;;;;;;;28.85;16.92;;;;;;;;;;4981433;28;20046;-83
2022/12/13 04:40:43;;;;;;;34.95;16.60;;;;;;;;;;4997357;28;20041;-86
2022/12/13 04:43:09;;;;;;;34.72;18.60;;;;;;;;;;5013534;28;20038;-87
2022/12/13 04:45:35;;;;;;;32.08;18.30;;;;;;;;;;4997539;28;20041;-84
2022/12/13 04:48:01;;;;;;;31.23;17.77;;;;;;;;;;4997290;28;20053;-83
2022/12/13 04:50:28;;;;;;;36.72;18.73;;;;;;;;;;4996813;28;20077;-85
2022/12/13 04:52:54;;;;;;;38.03;20.05;;;;;;;;;;4981428;28;20038;-85
2022/12/13 04:55:20;;;;;;;35.88;19.00;;;;;;;;;;4997175;28;20050;-85
2022/12/13 04:57:46;;;;;;;31.10;18.40;;;;;;;;;;5013481;28;20048;-85
2022/12/13 05:00:13;;;;;;;27.77;16.35;;;;;;;;;;5013014;28;20046;-85
2022/12/13 05:02:42;;;;;;;31.70;18.17;;;;;;;;;;4979934;28;20151;-85
2022/12/13 05:05:09;;;;;;;26.80;16.17;;;;;;;;;;5012963;28;20052;-86
2022/12/13 05:07:35;;;;;;;28.05;17.65;;;;;;;;;;4998867;28;20049;-84
2022/12/13 05:10:01;;;;;;;34.53;18.38;;;;;;;;;;5013634;28;20057;-85
2022/12/13 05:12:27;;;;;;;29.10;17.67;;;;;;;;;;4998085;28;20052;-85
2022/12/13 05:14:53;;;;;;;38.35;17.80;;;;;;;;;;4996461;28;20056;-85
2022/12/13 05:17:20;;;;;;;31.88;17.55;;;;;;;;;;4996758;28;20081;-86
2022/12/13 05:19:49;;;;;;;27.38;16.52;;;;;;;;;;5013376;28;20120;-85
2022/12/13 05:22:15;;;;;;;30.60;17.33;;;;;;;;;;4980922;28;20037;-83
2022/12/13 05:24:44;;;;;;;31.20;16.75;;;;;;;;;;4996895;28;20506;-83
2022/12/13 05:27:11;;;;;;;37.55;18.27;;;;;;;;;;4996490;28;20085;-84
2022/12/13 05:29:37;;;;;;;32.92;16.52;;;;;;;;;;5013213;28;20055;-84
2022/12/13 05:32:06;;;;;;;29.08;17.90;;;;;;;;;;4997271;28;20038;-84
2022/12/13 05:34:32;;;;;;;30.00;17.77;;;;;;;;;;4996239;28;20439;-85
2022/12/13 05:36:58;;;;;;;36.08;17.10;;;;;;;;;;4996369;28;20506;-84
2022/12/13 05:39:25;;;;;;;23.52;15.60;;;;;;;;;;4996190;28;20053;-86
2022/12/13 05:41:51;;;;;;;31.92;17.55;;;;;;;;;;4995945;28;20065;-84
2022/12/13 05:44:17;;;;;;;29.23;18.02;;;;;;;;;;4995647;28;20525;-84
2022/12/13 05:46:43;;;;;;;30.80;16.02;;;;;;;;;;4996077;28;20085;-84
2022/12/13 05:49:10;;;;;;;33.92;16.85;;;;;;;;;;4979442;28;20045;-84
2022/12/13 05:51:36;;;;;;;29.58;16.60;;;;;;;;;;4996060;28;20491;-84
2022/12/13 05:54:03;;;;;;;40.13;18.52;;;;;;;;;;4979838;28;20088;-85
2022/12/13 05:56:29;;;;;;;35.60;18.92;;;;;;;;;;5011450;28;20321;-87
2022/12/13 05:58:55;;;;;;;29.10;16.98;;;;;;;;;;5011763;28;20081;-86
2022/12/13 06:01:22;;;;;;;35.15;17.52;;;;;;;;;;4995903;28;20046;-87
2022/12/13 06:03:48;;;;;;;36.78;17.67;;;;;;;;;;4979928;28;20049;-87
2022/12/13 06:06:16;;;;;;;27.45;17.05;;;;;;;;;;4996445;28;20375;-87
2022/12/13 06:08:44;;;;;;;31.88;18.05;;;;;;;;;;4996151;28;20049;-86
2022/12/13 06:11:10;;;;;;;49.38;17.77;;;;;;;;;;4995586;28;20049;-86
2022/12/13 06:13:36;;;;;;;32.13;17.40;;;;;;;;;;5012240;28;20141;-84
2022/12/13 06:16:03;;;;;;;30.98;16.30;;;;;;;;;;5011651;28;20046;-85
2022/12/13 06:18:31;;;;;;;31.92;17.35;;;;;;;;;;4995749;28;20050;-85
2022/12/13 06:20:57;;;;;;;33.17;17.45;;;;;;;;;;5011845;28;20046;-84
2022/12/13 06:23:24;;;;;;;32.35;18.02;;;;;;;;;;5013846;28;20042;-84
2022/12/13 06:25:50;;;;;;;43.13;18.30;;;;;;;;;;4996623;28;20060;-84
2022/12/13 06:28:16;;;;;;;31.02;18.27;;;;;;;;;;5012976;28;20038;-84
2022/12/13 06:30:42;;;;;;;28.20;18.30;;;;;;;;;;5013964;28;20049;-88
2022/12/13 06:33:09;;;;;;;34.70;19.02;;;;;;;;;;5013042;28;20054;-86
2022/12/13 06:35:35;;;;;;;34.25;18.58;;;;;;;;;;5014377;28;20049;-85
2022/12/13 06:38:02;;;;;;;40.28;18.92;;;;;;;;;;5013280;28;20042;-83
2022/12/13 06:40:32;;;;;;;34.08;18.17;;;;;;;;;;4995389;28;20091;-82
2022/12/13 06:42:58;;;;;;;31.27;17.08;;;;;;;;;;4995619;28;20046;-82
2022/12/13 06:45:25;;;;;;;41.17;20.23;;;;;;;;;;5011214;28;20085;-83
2022/12/13 06:47:51;;;;;;;30.83;18.23;;;;;;;;;;5012040;28;20049;-87
2022/12/13 06:50:17;;;;;;;33.83;17.42;;;;;;;;;;5011275;28;20125;-85
2022/12/13 06:52:45;;;;;;;30.65;18.60;;;;;;;;;;5012464;28;20044;-82
2022/12/13 06:55:11;;;;;;;29.52;16.25;;;;;;;;;;5011447;28;20523;-89
2022/12/13 06:57:37;;;;;;;33.45;17.85;;;;;;;;;;4995466;28;20491;-86
2022/12/13 07:00:04;;;;;;;31.30;17.23;;;;;;;;;;5012466;28;20073;-87
2022/12/13 07:02:31;;;;;;;32.42;16.75;;;;;;;;;;5012947;28;20479;-83
2022/12/13 07:04:57;;;;;;;27.17;16.55;;;;;;;;;;5011784;28;20053;-83
2022/12/13 07:07:24;;;;;;;40.88;18.52;;;;;;;;;;4995041;28;20081;-82
2022/12/13 07:09:51;;;;;;;28.52;16.67;;;;;;;;;;5010936;28;20049;-81
2022/12/13 07:12:18;;;;;;;34.90;18.42;;;;;;;;;;4978657;28;20487;-82
2022/12/13 07:14:44;;;;;;;31.15;16.65;;;;;;;;;;4994789;28;20054;-81
2022/12/13 07:17:10;;;;;;;29.23;17.30;;;;;;;;;;5010795;28;20045;-81
2022/12/13 07:19:36;;;;;;;34.10;18.20;;;;;;;;;;5010926;28;20491;-81
2022/12/13 07:22:04;;;;;;;34.25;17.40;;;;;;;;;;4978252;28;20073;-81
2022/12/13 07:24:30;;;;;;;30.75;16.90;;;;;;;;;;5010678;28;20155;-82
2022/12/13 07:26:56;;;;;;;31.52;18.20;;;;;;;;;;4997468;28;20510;-81
2022/12/13 07:29:22;;;;;;;31.98;18.10;;;;;;;;;;4997901;28;20052;-81
2022/12/13 07:31:48;;;;;;;37.90;19.05;;;;;;;;;;4998233;28;20129;-82
2022/12/13 07:34:14;;;;;;;35.13;19.13;;;;;;;;;;4997902;28;20097;-81
2022/12/13 07:36:41;;;;;;;29.95;16.58;;;;;;;;;;4998055;28;20561;-82
2022/12/13 07:39:07;;;;;;;33.92;20.33;;;;;;;;;;5014510;28;20041;-81
2022/12/13 07:41:33;;;;;;;39.92;18.50;;;;;;;;;;4982417;28;20438;-90
2022/12/13 07:43:59;;;;;;;30.90;18.58;;;;;;;;;;4982872;28;20053;-91
2022/12/13 07:46:25;;;;;;;39.25;20.20;;;;;;;;;;4982653;28;20091;-92
2022/12/13 07:48:51;;;;;;;34.92;19.42;;;;;;;;;;4982185;28;20088;-87
2022/12/13 07:51:17;;;;;;;40.05;20.90;;;;;;;;;;4998167;28;20050;-82
2022/12/13 07:53:43;;;;;;;37.00;19.85;;;;;;;;;;4998314;28;20048;-84
2022/12/13 07:56:10;;;;;;;37.78;20.55;;;;;;;;;;4998334;28;20046;-83
2022/12/13 07:58:36;;;;;;;33.80;20.55;;;;;;;;;;5014207;28;20038;-82
2022/12/13 08:01:04;;;;;;;33.95;18.13;;;;;;;;;;4997907;28;20045;-82
2022/12/13 08:03:30;;;;;;;29.75;17.85;;;;;;;;;;4998688;28;20364;-92
2022/12/13 08:06:07;;;;;;;34.90;18.92;;;;;;;;;;5013941;28;20574;-85
2022/12/13 08:08:33;;;;;;;32.42;18.48;;;;;;;;;;4998388;28;20132;-84
2022/12/13 08:11:01;;;;;;;33.63;18.77;;;;;;;;;;5014406;28;20049;-85
2022/12/13 08:13:27;;;;;;;31.65;17.58;;;;;;;;;;5014072;28;20045;-83
2022/12/13 08:15:58;;;;;;;32.67;18.30;;;;;;;;;;4997567;28;20052;-88
2022/12/13 08:18:24;;;;;;;32.13;17.77;;;;;;;;;;5014414;28;20125;-86
2022/12/13 08:20:50;;;;;;;38.33;19.00;;;;;;;;;;4997640;28;20095;-84
2022/12/13 08:23:16;;;;;;;37.90;18.58;;;;;;;;;;4981563;28;20042;-85
2022/12/13 08:25:42;;;;;;;35.38;19.17;;;;;;;;;;4981924;28;20081;-90
2022/12/13 08:28:08;;;;;;;31.17;18.85;;;;;;;;;;4981989;28;20046;-92
2022/12/13 08:30:34;;;;;;;30.55;18.23;;;;;;;;;;4998143;28;20046;-91
2022/12/13 08:33:00;;;;;;;28.30;16.90;;;;;;;;;;5014345;28;20053;-92
2022/12/13 08:35:29;;;;;;;31.30;17.75;;;;;;;;;;4998245;28;20089;-90
2022/12/13 08:37:55;;;;;;;31.50;15.50;;;;;;;;;;4998096;28;20054;-93
2022/12/13 08:40:21;;;;;;;32.65;17.98;;;;;;;;;;4998522;28;20056;-93
2022/12/13 08:42:48;;;;;;;33.67;17.15;;;;;;;;;;5013409;28;20129;-85
2022/12/13 08:45:14;;;;;;;30.98;17.70;;;;;;;;;;4996692;28;20125;-87
2022/12/13 08:47:40;;;;;;;28.80;16.52;;;;;;;;;;4996903;28;20049;-87
2022/12/13 08:50:06;;;;;;;34.53;19.05;;;;;;;;;;4996971;28;20050;-90
2022/12/13 08:52:33;;;;;;;31.38;18.38;;;;;;;;;;4997280;28;20398;-85
2022/12/13 08:54:59;;;;;;;34.90;18.95;;;;;;;;;;4996865;28;20046;-87
2022/12/13 08:57:25;;;;;;;33.95;18.48;;;;;;;;;;4996843;28;20038;-83
2022/12/13 08:59:53;;;;;;;29.48;17.92;;;;;;;;;;4997498;28;20038;-87
2022/12/13 09:02:19;;;;;;;33.20;19.75;;;;;;;;;;4997077;28;20104;-87
2022/12/13 09:04:45;;;;;;;28.70;18.30;;;;;;;;;;5000007;28;20195;-83
2022/12/13 09:07:11;;;;;;;36.30;20.10;;;;;;;;;;4980961;28;20125;-86
2022/12/13 09:09:37;;;;;;;36.45;20.08;;;;;;;;;;4996790;28;20453;-83
2022/12/13 09:12:03;;;;;;;36.15;20.90;;;;;;;;;;4980388;28;20049;-84
2022/12/13 09:14:30;;;;;;;39.10;18.17;;;;;;;;;;4996506;28;20056;-84
2022/12/13 09:16:56;;;;;;;45.20;20.58;;;;;;;;;;5012703;28;20049;-84
2022/12/13 09:19:24;;;;;;;40.80;21.48;;;;;;;;;;5012579;28;20435;-83
2022/12/13 09:21:50;;;;;;;29.00;17.70;;;;;;;;;;5012871;28;20100;-84
2022/12/13 09:24:16;;;;;;;37.83;22.25;;;;;;;;;;4980316;28;20199;-80
2022/12/13 09:26:42;;;;;;;36.45;20.30;;;;;;;;;;5012942;28;20398;-84
2022/12/13 09:29:08;;;;;;;40.35;21.83;;;;;;;;;;4980007;28;20046;-83
2022/12/13 09:31:36;;;;;;;49.97;21.38;;;;;;;;;;4979927;28;20041;-85
2022/12/13 09:34:02;;;;;;;39.08;20.45;;;;;;;;;;4996046;28;20060;-86
2022/12/13 09:36:28;;;;;;;33.45;18.88;;;;;;;;;;4996531;28;20049;-89
2022/12/13 09:38:54;;;;;;;32.75;19.10;;;;;;;;;;5012878;28;20473;-87
2022/12/13 09:41:30;;;;;;;41.63;20.23;;;;;;;;;;4996855;28;20089;-90
2022/12/13 09:43:57;;;;;;;39.13;22.80;;;;;;;;;;4996601;28;20108;-89
2022/12/13 09:46:31;;;;;;;42.22;21.00;;;;;;;;;;4996134;28;20045;-89
2022/12/13 09:48:58;;;;;;;36.35;19.63;;;;;;;;;;4995311;28;20136;-87
2022/12/13 09:51:25;;;;;;;35.30;19.90;;;;;;;;;;4995798;28;20046;-86
2022/12/13 09:53:52;;;;;;;41.33;21.15;;;;;;;;;;5012112;28;20406;-83
2022/12/13 09:56:19;;;;;;;37.65;20.85;;;;;;;;;;5012281;28;20052;-84
2022/12/13 09:58:47;;;;;;;39.30;21.38;;;;;;;;;;5012289;28;20134;-87
2022/12/13 10:01:13;;;;;;;40.92;20.73;;;;;;;;;;5012377;28;20196;-90
2022/12/13 10:03:41;;;;;;;32.80;20.38;;;;;;;;;;4980193;28;20046;-85
2022/12/13 10:06:16;;;;;;;43.03;21.02;;;;;;;;;;4996226;28;20057;-90
2022/12/13 10:08:44;;;;;;;37.88;20.88;;;;;;;;;;4995570;28;20042;-85
2022/12/13 10:11:14;;;;;;;39.47;20.83;;;;;;;;;;4995741;28;20518;-85
2022/12/13 10:13:45;;;;;;;39.75;20.35;;;;;;;;;;4996314;28;20133;-86
2022/12/13 10:16:32;;;;;;;33.13;18.85;;;;;;;;;;4995619;28;20562;-91
2022/12/13 10:18:58;;;;;;;42.05;20.13;;;;;;;;;;5012114;28;20054;-86
2022/12/13 10:21:53;;;;;;;35.88;20.73;;;;;;;;;;4979829;28;20076;-91
2022/12/13 10:24:26;;;;;;;31.88;19.33;;;;;;;;;;4999454;28;20046;-87
2022/12/13 10:26:52;;;;;;;36.90;19.48;;;;;;;;;;4995707;28;20095;-90
2022/12/13 10:29:18;;;;;;;39.03;20.77;;;;;;;;;;4995793;28;20084;-86
2022/12/13 10:31:46;;;;;;;37.40;21.48;;;;;;;;;;5011631;28;20057;-89
2022/12/13 10:34:29;;;;;;;36.92;19.98;;;;;;;;;;4995381;28;20400;-91
2022/12/13 10:36:55;;;;;;;42.60;22.67;;;;;;;;;;5012057;28;20042;-87
2022/12/13 10:39:41;;;;;;;35.05;20.30;;;;;;;;;;4995092;28;20129;-83
2022/12/13 10:42:14;;;;;;;35.08;20.85;;;;;;;;;;5011517;28;20434;-86
2022/12/13 10:44:40;;;;;;;32.60;21.13;;;;;;;;;;4994686;28;20056;-84
2022/12/13 10:47:10;;;;;;;37.42;21.95;;;;;;;;;;5011320;28;20042;-84
2022/12/13 10:49:35;;;;;;;36.70;19.80;;;;;;;;;;5011009;28;20136;-83
2022/12/13 10:52:02;;;;;;;41.28;20.73;;;;;;;;;;5011179;28;20092;-87
2022/12/13 10:54:37;;;;;;;36.00;20.98;;;;;;;;;;4994478;28;20050;-83
2022/12/13 10:57:03;;;;;;;33.78;19.75;;;;;;;;;;4995060;28;20045;-84
2022/12/13 10:59:34;;;;;;;35.20;19.38;;;;;;;;;;4994765;28;20099;-83
2022/12/13 11:02:02;;;;;;;35.65;19.83;;;;;;;;;;4998237;28;20042;-84
2022/12/13 11:04:33;;;;;;;36.17;20.75;;;;;;;;;;4998459;28;20417;-85
2022/12/13 11:07:00;;;;;;;39.30;19.15;;;;;;;;;;5014996;28;20053;-84
2022/12/13 11:09:29;;;;;;;33.75;20.25;;;;;;;;;;5015007;28;20077;-83
2022/12/13 11:11:57;;;;;;;35.15;18.63;;;;;;;;;;5015105;28;20177;-85
2022/12/13 11:14:24;;;;;;;29.73;19.27;;;;;;;;;;4998237;28;20044;-83
2022/12/13 11:16:52;;;;;;;37.90;20.73;;;;;;;;;;5015031;28;20045;-83
2022/12/13 11:19:23;;;;;;;37.58;20.92;;;;;;;;;;5014703;28;20560;-86
2022/12/13 11:21:50;;;;;;;35.95;20.30;;;;;;;;;;5014910;28;20095;-84
2022/12/13 11:24:29;;;;;;;32.63;18.90;;;;;;;;;;4998274;28;20136;-84
2022/12/13 11:27:13;;;;;;;33.72;19.98;;;;;;;;;;4998854;28;20042;-85
2022/12/13 11:29:49;;;;;;;31.42;18.38;;;;;;;;;;4998297;28;20533;-83
2022/12/13 11:32:21;;;;;;;35.65;18.45;;;;;;;;;;4998279;28;20114;-84
2022/12/13 11:35:11;;;;;;;34.08;18.30;;;;;;;;;;4998063;28;20064;-84
2022/12/13 11:37:56;;;;;;;32.28;19.38;;;;;;;;;;4998396;28;20042;-85
2022/12/13 11:40:24;;;;;;;31.40;17.90;;;;;;;;;;5014265;28;20077;-85
2022/12/13 11:42:57;;;;;;;31.05;17.15;;;;;;;;;;4997948;28;20045;-85
2022/12/13 11:45:26;;;;;;;37.55;17.67;;;;;;;;;;5014040;28;20572;-85
2022/12/13 11:47:59;;;;;;;30.55;17.13;;;;;;;;;;5014191;28;20045;-85
2022/12/13 11:50:28;;;;;;;28.05;17.40;;;;;;;;;;4997632;28;20053;-85
2022/12/13 11:52:55;;;;;;;28.92;16.70;;;;;;;;;;4997609;28;20056;-85
2022/12/13 11:55:26;;;;;;;30.65;17.63;;;;;;;;;;4997626;28;20096;-85
2022/12/13 11:58:07;;;;;;;28.38;17.00;;;;;;;;;;5013933;28;20042;-85
2022/12/13 12:00:34;;;;;;;30.63;18.65;;;;;;;;;;5013978;28;20046;-85
2022/12/13 12:03:07;;;;;;;27.33;16.83;;;;;;;;;;4997478;28;20130;-85
2022/12/13 12:05:34;;;;;;;32.88;17.70;;;;;;;;;;5013880;28;20092;-85
2022/12/13 12:08:35;;;;;;;28.85;17.15;;;0.60;99.90;;;;;;5014072;28;20088;-85
2022/12/13 12:11:20;;;;;;;30.65;16.25;;;;;;;;;;4993861;28;20046;-85
2022/12/13 12:13:51;;;;;;;36.42;18.90;;;;;;;;;;4997469;28;20053;-85
2022/12/13 12:16:32;;;;;;;30.15;16.45;;;;;;;;;;5013622;28;20065;-85
2022/12/13 12:18:59;;;;;;;24.75;15.63;;;;;;;;;;4997244;28;20041;-85
2022/12/13 12:21:36;;;;;;;26.50;12.85;;;;;;;;;;4981557;28;20045;-85
2022/12/13 12:24:05;;;;;;;21.23;12.88;;;;;;;;;;4997427;28;20504;-85
2022/12/13 12:26:36;;;;;;;22.35;13.85;;;;;;;;;;5013565;28;20041;-85
2022/12/13 12:29:06;;;;;;;19.73;13.45;;;;;;;;;;5013424;28;20056;-84
2022/12/13 12:31:38;;;;;;;20.17;13.25;;;;;;;;;;5013513;28;20048;-85
2022/12/13 12:34:28;;;;;;;23.98;11.75;;;1.00;99.90;;;;;;5013352;28;20518;-85
2022/12/13 12:36:54;;;;;;;21.52;13.23;;;;;;;;;;5013129;28;20049;-85
2022/12/13 12:39:28;;;;;;;20.30;11.73;;;;;;;;;;4997133;28;20050;-85
2022/12/13 12:42:03;;;;;;;;;;;0.90;99.90;;;;;;4997152;28;20052;-85
2022/12/13 12:45:02;;;;;;;18.35;11.27;;;;;;;;;;4996561;28;20409;-85
2022/12/13 12:47:31;;;;;;;22.67;12.38;;;;;;;;;;4964947;28;20137;-85
2022/12/13 12:49:57;;;;;;;23.52;12.27;;;;;;;;;;5012894;28;20085;-85
2022/12/13 12:52:31;;;;;;;20.65;11.10;;;;;;;;;;4996623;28;20038;-85
2022/12/13 12:55:11;;;;;;;19.45;12.15;;;;;;;;;;4996861;28;20045;-85
2022/12/13 12:57:55;;;;;;;18.90;11.63;;;;;;;;;;4996518;28;20138;-86
2022/12/13 13:00:22;;;;;;;19.73;11.65;;;;;;;;;;4996584;28;20050;-85
2022/12/13 13:02:54;;;;;;;20.02;12.80;;;;;;;;;;5012802;28;20092;-85
2022/12/13 13:05:21;;;;;;;21.83;12.32;;;;;;;;;;5012785;28;20042;-85
2022/12/13 13:07:51;;;;;;;21.63;11.98;;;;;;;;;;4996460;28;20053;-86
2022/12/13 13:10:18;;;;;;;24.90;12.48;;;;;;;;;;5012561;28;20042;-85
2022/12/13 13:12:44;;;;;;;17.40;10.80;;;;;;;;;;4980357;28;20104;-85
2022/12/13 13:15:46;;;;;;;19.60;11.48;;;;;;;;;;4996169;28;20445;-84
2022/12/13 13:18:32;;;;;;;17.73;11.48;;;;;;;;;;4936992;29;20102;-85
2022/12/13 13:21:18;;;;;;;18.08;11.38;;;;;;;;;;4994967;28;20419;-85
2022/12/13 13:23:44;;;;;;;18.65;11.25;;;;;;;;;;5001623;28;20402;-85
2022/12/13 13:26:11;;;;;;;20.58;11.45;;;;;;;;;;4996073;28;20041;-85
2022/12/13 13:28:37;;;;;;;24.70;12.43;;;;;;;;;;4995881;28;20046;-84
2022/12/13 13:31:05;;;;;;;17.92;11.25;;;;;;;;;;5012260;28;20108;-85
2022/12/13 13:33:47;;;;;;;20.23;11.57;;;1.30;99.90;;;;;;4995705;28;20054;-85
2022/12/13 13:36:46;;;;;;;19.42;11.52;;;;;;;;;;4995810;28;20056;-86
2022/12/13 13:39:18;;;;;;;19.95;11.98;;;;;;;;;;4980029;28;20141;-85
2022/12/13 13:42:16;;;;;;;20.00;12.70;;;1.20;99.90;;;;;;4996113;28;20041;-86
2022/12/13 13:44:45;;;;;;;20.92;12.45;;;;;;;;;;5011775;28;20053;-85
2022/12/13 13:47:16;;;;;;;18.80;12.38;;;;;;;;;;5011993;28;20050;-85
2022/12/13 13:50:00;;;;;;;20.88;11.98;;;;;;;;;;4995328;28;20506;-85
2022/12/13 13:52:31;;;;;;;21.52;11.82;;;;;;;;;;4995562;28;20052;-85
2022/12/13 13:55:34;;;;;;;19.10;12.95;;;1.10;99.90;;;;;;5011757;28;20517;-85
2022/12/13 13:58:00;;;;;;;18.65;11.95;;;;;;;;;;5011649;28;20096;-86
2022/12/13 14:00:57;;;;;;;23.40;12.65;;;1.30;99.90;;;;;;5011913;28;20136;-86
2022/12/13 14:03:42;;;;;;;22.20;12.68;;;;;;;;;;4995391;28;20046;-86
2022/12/13 14:06:20;;;;;;;24.35;13.60;;;;;;;;;;4995524;28;20037;-85
2022/12/13 14:09:01;;;;;;;23.17;13.45;;;;;;;;;;4995149;28;20100;-85
2022/12/13 14:11:43;;;;;;;21.35;11.88;;;;;;;;;;5011511;28;20522;-85
2022/12/13 14:14:24;;;;;;;21.52;12.32;;;;;;;;;;4995116;28;20045;-85
2022/12/13 14:17:08;;;;;;;21.77;14.30;;;;;;;;;;5011589;28;20060;-86
2022/12/13 14:19:35;;;;;;;18.73;12.90;;;;;;;;;;5011643;28;20045;-86
2022/12/13 14:22:16;;;;;;;21.58;12.55;;;;;;;;;;5151330;27;20516;-87
2022/12/13 14:24:42;;;;;;;20.45;13.00;;;;;;;;;;5151294;27;20448;-86
2022/12/13 14:27:27;;;;;;;19.35;12.65;;;;;;;;;;5133136;27;20406;-86
2022/12/13 14:29:53;;;;;;;25.10;14.20;;;;;;;;;;5133279;27;20047;-86
2022/12/13 14:32:24;;;;;;;20.88;13.50;;;;;;;;;;5115969;27;20065;-87
2022/12/13 14:34:50;;;;;;;20.90;13.60;;;;;;;;;;5132498;27;20038;-86